sensor_id;sensor_type;location;lat;lon;timestamp;temperature;humidity
20208;DHT22;10263;48.716;8.760;2023-07-31T00:01:11;14.10;99.90
20208;DHT22;10263;48.716;8.760;2023-07-31T00:03:37;14.10;99.90
20208;DHT22;10263;48.716;8.760;2023-07-31T00:06:04;14.10;99.90
20208;DHT22;10263;48.716;8.760;2023-07-31T00:08:31;14.00;99.90
20208;DHT22;10263;48.716;8.760;2023-07-31T00:10:58;14.00;99.90
20208;DHT22;10263;48.716;8.760;2023-07-31T00:13:24;14.00;99.90
20208;DHT22;10263;48.716;8.760;2023-07-31T00:15:51;14.00;99.90
20208;DHT22;10263;48.716;8.760;2023-07-31T00:18:19;13.90;99.90
20208;DHT22;10263;48.716;8.760;2023-07-31T00:20:46;13.90;99.90
20208;DHT22;10263;48.716;8.760;2023-07-31T00:23:13;13.90;99.90
20208;DHT22;10263;48.716;8.760;2023-07-31T00:25:40;13.90;99.90
20208;DHT22;10263;48.716;8.760;2023-07-31T00:28:06;13.80;99.90
20208;DHT22;10263;48.716;8.760;2023-07-31T00:30:33;13.90;99.90
20208;DHT22;10263;48.716;8.760;2023-07-31T00:33:00;13.80;99.90
20208;DHT22;10263;48.716;8.760;2023-07-31T00:35:28;13.80;99.90
20208;DHT22;10263;48.716;8.760;2023-07-31T00:37:57;13.80;99.90
20208;DHT22;10263;48.716;8.760;2023-07-31T00:40:24;13.80;99.90
20208;DHT22;10263;48.716;8.760;2023-07-31T00:42:51;13.80;99.90
20208;DHT22;10263;48.716;8.760;2023-07-31T00:45:18;13.80;99.90
20208;DHT22;10263;48.716;8.760;2023-07-31T00:47:44;13.70;99.90
20208;DHT22;10263;48.716;8.760;2023-07-31T00:50:11;13.60;99.90
20208;DHT22;10263;48.716;8.760;2023-07-31T00:52:40;13.60;99.90
20208;DHT22;10263;48.716;8.760;2023-07-31T00:55:08;13.60;99.90
20208;DHT22;10263;48.716;8.760;2023-07-31T00:57:35;13.60;99.90
20208;DHT22;10263;48.716;8.760;2023-07-31T01:00:03;13.60;99.90
20208;DHT22;10263;48.716;8.760;2023-07-31T01:02:30;13.50;99.90
20208;DHT22;10263;48.716;8.760;2023-07-31T01:04:57;13.50;99.90
20208;DHT22;10263;48.716;8.760;2023-07-31T01:07:30;13.50;99.90
20208;DHT22;10263;48.716;8.760;2023-07-31T01:10:06;13.50;99.90
20208;DHT22;10263;48.716;8.760;2023-07-31T01:12:34;13.40;99.90
20208;DHT22;10263;48.716;8.760;2023-07-31T01:15:04;13.40;99.90
20208;DHT22;10263;48.716;8.760;2023-07-31T01:17:31;13.40;99.90
20208;DHT22;10263;48.716;8.760;2023-07-31T01:20:01;13.40;99.90
20208;DHT22;10263;48.716;8.760;2023-07-31T01:22:45;13.40;99.90
20208;DHT22;10263;48.716;8.760;2023-07-31T01:25:30;13.40;99.90
20208;DHT22;10263;48.716;8.760;2023-07-31T01:28:03;13.40;99.90
20208;DHT22;10263;48.716;8.760;2023-07-31T01:30:33;13.40;99.90
20208;DHT22;10263;48.716;8.760;2023-07-31T01:33:03;13.40;99.90
20208;DHT22;10263;48.716;8.760;2023-07-31T01:35:33;13.40;99.90
20208;DHT22;10263;48.716;8.760;2023-07-31T01:38:00;13.40;99.90
20208;DHT22;10263;48.716;8.760;2023-07-31T01:40:26;13.40;99.90
20208;DHT22;10263;48.716;8.760;2023-07-31T01:42:53;13.30;99.90
20208;DHT22;10263;48.716;8.760;2023-07-31T01:45:21;13.30;99.90
20208;DHT22;10263;48.716;8.760;2023-07-31T01:47:48;13.30;99.90
20208;DHT22;10263;48.716;8.760;2023-07-31T01:50:16;13.20;99.90
20208;DHT22;10263;48.716;8.760;2023-07-31T01:52:42;13.20;99.90
20208;DHT22;10263;48.716;8.760;2023-07-31T01:55:09;13.20;99.90
20208;DHT22;10263;48.716;8.760;2023-07-31T01:57:36;13.20;99.90
20208;DHT22;10263;48.716;8.760;2023-07-31T02:00:04;13.20;99.90
20208;DHT22;10263;48.716;8.760;2023-07-31T02:02:38;13.10;99.90
20208;DHT22;10263;48.716;8.760;2023-07-31T02:05:06;13.10;99.90
20208;DHT22;10263;48.716;8.760;2023-07-31T02:07:33;13.10;99.90
20208;DHT22;10263;48.716;8.760;2023-07-31T02:10:00;13.10;99.90
20208;DHT22;10263;48.716;8.760;2023-07-31T02:12:27;13.00;99.90
20208;DHT22;10263;48.716;8.760;2023-07-31T02:14:56;13.00;99.90
20208;DHT22;10263;48.716;8.760;2023-07-31T02:17:22;13.00;99.90
20208;DHT22;10263;48.716;8.760;2023-07-31T02:19:51;13.00;99.90
20208;DHT22;10263;48.716;8.760;2023-07-31T02:22:18;12.90;99.90
20208;DHT22;10263;48.716;8.760;2023-07-31T02:24:45;12.90;99.90
20208;DHT22;10263;48.716;8.760;2023-07-31T02:27:12;12.90;99.90
20208;DHT22;10263;48.716;8.760;2023-07-31T02:29:39;12.90;99.90
20208;DHT22;10263;48.716;8.760;2023-07-31T02:32:06;12.90;99.90
20208;DHT22;10263;48.716;8.760;2023-07-31T02:34:32;12.90;99.90
20208;DHT22;10263;48.716;8.760;2023-07-31T02:37:01;12.90;99.90
20208;DHT22;10263;48.716;8.760;2023-07-31T02:39:28;12.90;99.90
20208;DHT22;10263;48.716;8.760;2023-07-31T02:41:54;12.80;99.90
20208;DHT22;10263;48.716;8.760;2023-07-31T02:44:22;12.80;99.90
20208;DHT22;10263;48.716;8.760;2023-07-31T02:46:49;12.70;99.90
20208;DHT22;10263;48.716;8.760;2023-07-31T02:49:16;12.70;99.90
20208;DHT22;10263;48.716;8.760;2023-07-31T02:51:43;12.70;99.90
20208;DHT22;10263;48.716;8.760;2023-07-31T02:54:11;12.70;99.90
20208;DHT22;10263;48.716;8.760;2023-07-31T02:56:38;12.70;99.90
20208;DHT22;10263;48.716;8.760;2023-07-31T02:59:05;12.60;99.90
20208;DHT22;10263;48.716;8.760;2023-07-31T03:01:31;12.60;99.90
20208;DHT22;10263;48.716;8.760;2023-07-31T03:03:58;12.60;99.90
20208;DHT22;10263;48.716;8.760;2023-07-31T03:06:25;12.60;99.90
20208;DHT22;10263;48.716;8.760;2023-07-31T03:08:53;12.60;99.90
20208;DHT22;10263;48.716;8.760;2023-07-31T03:11:21;12.60;99.90
20208;DHT22;10263;48.716;8.760;2023-07-31T03:13:48;12.60;99.90
20208;DHT22;10263;48.716;8.760;2023-07-31T03:16:15;12.60;99.90
20208;DHT22;10263;48.716;8.760;2023-07-31T03:18:42;12.60;99.90
20208;DHT22;10263;48.716;8.760;2023-07-31T03:21:08;12.60;99.90
20208;DHT22;10263;48.716;8.760;2023-07-31T03:23:35;12.50;99.90
20208;DHT22;10263;48.716;8.760;2023-07-31T03:26:07;12.50;99.90
20208;DHT22;10263;48.716;8.760;2023-07-31T03:28:35;12.50;99.90
20208;DHT22;10263;48.716;8.760;2023-07-31T03:31:04;12.50;99.90
20208;DHT22;10263;48.716;8.760;2023-07-31T03:33:30;12.50;99.90
20208;DHT22;10263;48.716;8.760;2023-07-31T03:35:57;12.50;99.90
20208;DHT22;10263;48.716;8.760;2023-07-31T03:38:24;12.50;99.90
20208;DHT22;10263;48.716;8.760;2023-07-31T03:40:53;12.50;99.90
20208;DHT22;10263;48.716;8.760;2023-07-31T03:43:19;12.50;99.90
20208;DHT22;10263;48.716;8.760;2023-07-31T03:45:48;12.50;99.90
20208;DHT22;10263;48.716;8.760;2023-07-31T03:48:15;12.50;99.90
20208;DHT22;10263;48.716;8.760;2023-07-31T03:50:42;12.50;99.90
20208;DHT22;10263;48.716;8.760;2023-07-31T03:53:08;12.60;99.90
20208;DHT22;10263;48.716;8.760;2023-07-31T03:55:35;12.60;99.90
20208;DHT22;10263;48.716;8.760;2023-07-31T03:58:02;12.60;99.90
20208;DHT22;10263;48.716;8.760;2023-07-31T04:00:29;12.60;99.90
20208;DHT22;10263;48.716;8.760;2023-07-31T04:02:57;12.60;99.90
20208;DHT22;10263;48.716;8.760;2023-07-31T04:05:24;12.70;99.90
20208;DHT22;10263;48.716;8.760;2023-07-31T04:07:51;12.70;99.90
20208;DHT22;10263;48.716;8.760;2023-07-31T04:10:17;12.70;99.90
20208;DHT22;10263;48.716;8.760;2023-07-31T04:12:44;12.70;99.90
20208;DHT22;10263;48.716;8.760;2023-07-31T04:15:11;12.70;99.90
20208;DHT22;10263;48.716;8.760;2023-07-31T04:17:38;12.80;99.90
20208;DHT22;10263;48.716;8.760;2023-07-31T04:20:07;12.80;99.90
20208;DHT22;10263;48.716;8.760;2023-07-31T04:22:34;12.80;99.90
20208;DHT22;10263;48.716;8.760;2023-07-31T04:25:00;12.80;99.90
20208;DHT22;10263;48.716;8.760;2023-07-31T04:27:27;12.80;99.90
20208;DHT22;10263;48.716;8.760;2023-07-31T04:29:54;12.90;99.90
20208;DHT22;10263;48.716;8.760;2023-07-31T04:32:20;13.00;99.90
20208;DHT22;10263;48.716;8.760;2023-07-31T04:34:47;12.90;99.90
20208;DHT22;10263;48.716;8.760;2023-07-31T04:37:15;12.90;99.90
20208;DHT22;10263;48.716;8.760;2023-07-31T04:39:42;13.00;99.90
20208;DHT22;10263;48.716;8.760;2023-07-31T04:42:09;12.90;99.90
20208;DHT22;10263;48.716;8.760;2023-07-31T04:44:36;12.90;99.90
20208;DHT22;10263;48.716;8.760;2023-07-31T04:47:03;12.90;99.90
20208;DHT22;10263;48.716;8.760;2023-07-31T04:49:29;12.90;99.90
20208;DHT22;10263;48.716;8.760;2023-07-31T04:51:56;12.90;99.90
20208;DHT22;10263;48.716;8.760;2023-07-31T04:54:24;12.90;99.90
20208;DHT22;10263;48.716;8.760;2023-07-31T04:56:51;13.00;99.90
20208;DHT22;10263;48.716;8.760;2023-07-31T04:59:18;13.00;99.90
20208;DHT22;10263;48.716;8.760;2023-07-31T05:01:45;13.10;99.90
20208;DHT22;10263;48.716;8.760;2023-07-31T05:04:13;13.10;99.90
20208;DHT22;10263;48.716;8.760;2023-07-31T05:06:39;13.10;99.90
20208;DHT22;10263;48.716;8.760;2023-07-31T05:09:06;13.20;99.90
20208;DHT22;10263;48.716;8.760;2023-07-31T05:11:36;13.20;99.90
20208;DHT22;10263;48.716;8.760;2023-07-31T05:14:03;13.20;99.90
20208;DHT22;10263;48.716;8.760;2023-07-31T05:16:29;13.30;99.90
20208;DHT22;10263;48.716;8.760;2023-07-31T05:18:56;13.40;99.90
20208;DHT22;10263;48.716;8.760;2023-07-31T05:21:23;13.50;99.90
20208;DHT22;10263;48.716;8.760;2023-07-31T05:23:49;13.60;99.90
20208;DHT22;10263;48.716;8.760;2023-07-31T05:26:16;13.60;99.90
20208;DHT22;10263;48.716;8.760;2023-07-31T05:28:44;13.80;99.90
20208;DHT22;10263;48.716;8.760;2023-07-31T05:31:11;13.90;99.90
20208;DHT22;10263;48.716;8.760;2023-07-31T05:33:38;14.00;99.90
20208;DHT22;10263;48.716;8.760;2023-07-31T05:36:05;14.00;99.90
20208;DHT22;10263;48.716;8.760;2023-07-31T05:38:31;14.10;99.90
20208;DHT22;10263;48.716;8.760;2023-07-31T05:40:58;14.20;99.90
20208;DHT22;10263;48.716;8.760;2023-07-31T05:43:25;14.20;99.90
20208;DHT22;10263;48.716;8.760;2023-07-31T05:45:53;14.20;99.90
20208;DHT22;10263;48.716;8.760;2023-07-31T05:48:20;14.20;99.90
20208;DHT22;10263;48.716;8.760;2023-07-31T05:50:46;14.20;99.90
20208;DHT22;10263;48.716;8.760;2023-07-31T05:53:13;14.20;99.90
20208;DHT22;10263;48.716;8.760;2023-07-31T05:55:40;14.30;99.90
20208;DHT22;10263;48.716;8.760;2023-07-31T05:58:07;14.30;99.90
20208;DHT22;10263;48.716;8.760;2023-07-31T06:00:33;14.40;99.90
20208;DHT22;10263;48.716;8.760;2023-07-31T06:03:01;14.40;99.90
20208;DHT22;10263;48.716;8.760;2023-07-31T06:05:28;14.50;99.90
20208;DHT22;10263;48.716;8.760;2023-07-31T06:07:55;14.60;99.90
20208;DHT22;10263;48.716;8.760;2023-07-31T06:10:22;14.80;99.90
20208;DHT22;10263;48.716;8.760;2023-07-31T06:12:49;14.90;99.90
20208;DHT22;10263;48.716;8.760;2023-07-31T06:15:15;15.00;99.90
20208;DHT22;10263;48.716;8.760;2023-07-31T06:17:43;15.10;99.90
20208;DHT22;10263;48.716;8.760;2023-07-31T06:20:11;15.20;99.90
20208;DHT22;10263;48.716;8.760;2023-07-31T06:22:38;15.40;99.90
20208;DHT22;10263;48.716;8.760;2023-07-31T06:25:06;15.50;99.90
20208;DHT22;10263;48.716;8.760;2023-07-31T06:27:33;15.70;99.90
20208;DHT22;10263;48.716;8.760;2023-07-31T06:29:59;15.80;99.90
20208;DHT22;10263;48.716;8.760;2023-07-31T06:44:33;16.20;99.90
20208;DHT22;10263;48.716;8.760;2023-07-31T06:47:00;16.20;99.90
20208;DHT22;10263;48.716;8.760;2023-07-31T06:49:27;16.30;99.90
20208;DHT22;10263;48.716;8.760;2023-07-31T06:51:55;16.30;99.90
20208;DHT22;10263;48.716;8.760;2023-07-31T06:54:22;16.30;99.90
20208;DHT22;10263;48.716;8.760;2023-07-31T06:56:48;16.30;99.90
20208;DHT22;10263;48.716;8.760;2023-07-31T06:59:15;16.40;99.90
20208;DHT22;10263;48.716;8.760;2023-07-31T07:01:43;16.50;99.90
20208;DHT22;10263;48.716;8.760;2023-07-31T07:04:10;16.60;99.90
20208;DHT22;10263;48.716;8.760;2023-07-31T07:06:37;16.80;99.90
20208;DHT22;10263;48.716;8.760;2023-07-31T07:09:04;17.10;99.90
20208;DHT22;10263;48.716;8.760;2023-07-31T07:11:31;17.50;99.90
20208;DHT22;10263;48.716;8.760;2023-07-31T07:13:58;17.70;99.90
20208;DHT22;10263;48.716;8.760;2023-07-31T07:16:25;17.80;99.90
20208;DHT22;10263;48.716;8.760;2023-07-31T07:18:53;17.60;99.90
20208;DHT22;10263;48.716;8.760;2023-07-31T07:21:20;17.50;99.90
20208;DHT22;10263;48.716;8.760;2023-07-31T07:23:46;17.40;99.90
20208;DHT22;10263;48.716;8.760;2023-07-31T07:26:13;17.20;99.90
20208;DHT22;10263;48.716;8.760;2023-07-31T07:28:40;17.10;99.90
20208;DHT22;10263;48.716;8.760;2023-07-31T07:31:07;17.00;99.90
20208;DHT22;10263;48.716;8.760;2023-07-31T07:33:33;17.00;99.90
20208;DHT22;10263;48.716;8.760;2023-07-31T07:36:02;17.00;99.90
20208;DHT22;10263;48.716;8.760;2023-07-31T07:38:29;17.00;99.90
20208;DHT22;10263;48.716;8.760;2023-07-31T07:40:56;17.10;99.90
20208;DHT22;10263;48.716;8.760;2023-07-31T07:43:23;17.10;99.90
20208;DHT22;10263;48.716;8.760;2023-07-31T07:45:49;17.40;99.90
20208;DHT22;10263;48.716;8.760;2023-07-31T07:48:16;18.00;99.90
20208;DHT22;10263;48.716;8.760;2023-07-31T07:50:43;18.60;99.90
20208;DHT22;10263;48.716;8.760;2023-07-31T07:53:11;18.60;99.90
20208;DHT22;10263;48.716;8.760;2023-07-31T07:55:39;18.50;99.90
20208;DHT22;10263;48.716;8.760;2023-07-31T07:58:06;18.40;99.90
20208;DHT22;10263;48.716;8.760;2023-07-31T08:00:32;18.10;99.90
20208;DHT22;10263;48.716;8.760;2023-07-31T08:02:59;18.00;99.90
20208;DHT22;10263;48.716;8.760;2023-07-31T08:05:26;18.00;99.90
20208;DHT22;10263;48.716;8.760;2023-07-31T08:07:53;17.90;99.90
20208;DHT22;10263;48.716;8.760;2023-07-31T08:10:21;17.70;99.90
20208;DHT22;10263;48.716;8.760;2023-07-31T08:12:47;17.70;99.90
20208;DHT22;10263;48.716;8.760;2023-07-31T08:15:14;17.60;99.90
20208;DHT22;10263;48.716;8.760;2023-07-31T08:17:41;17.50;99.90
20208;DHT22;10263;48.716;8.760;2023-07-31T08:20:09;17.50;99.90
20208;DHT22;10263;48.716;8.760;2023-07-31T08:22:36;17.40;99.90
20208;DHT22;10263;48.716;8.760;2023-07-31T08:25:03;17.50;99.90
20208;DHT22;10263;48.716;8.760;2023-07-31T08:27:32;17.40;99.90
20208;DHT22;10263;48.716;8.760;2023-07-31T08:29:59;17.50;99.90
20208;DHT22;10263;48.716;8.760;2023-07-31T08:32:26;17.50;99.90
20208;DHT22;10263;48.716;8.760;2023-07-31T08:34:52;17.50;99.90
20208;DHT22;10263;48.716;8.760;2023-07-31T08:37:19;17.70;99.90
20208;DHT22;10263;48.716;8.760;2023-07-31T08:39:46;17.80;99.90
20208;DHT22;10263;48.716;8.760;2023-07-31T08:42:13;18.00;99.90
20208;DHT22;10263;48.716;8.760;2023-07-31T08:44:41;18.20;99.90
20208;DHT22;10263;48.716;8.760;2023-07-31T08:47:09;18.40;99.90
20208;DHT22;10263;48.716;8.760;2023-07-31T08:49:38;18.50;99.90
20208;DHT22;10263;48.716;8.760;2023-07-31T08:52:06;18.60;99.90
20208;DHT22;10263;48.716;8.760;2023-07-31T08:54:33;18.70;99.90
20208;DHT22;10263;48.716;8.760;2023-07-31T08:57:00;18.80;99.90
20208;DHT22;10263;48.716;8.760;2023-07-31T08:59:29;18.80;99.90
20208;DHT22;10263;48.716;8.760;2023-07-31T09:02:03;18.80;99.90
20208;DHT22;10263;48.716;8.760;2023-07-31T09:04:31;18.80;99.90
20208;DHT22;10263;48.716;8.760;2023-07-31T09:07:00;18.90;99.90
20208;DHT22;10263;48.716;8.760;2023-07-31T09:09:28;19.10;99.90
20208;DHT22;10263;48.716;8.760;2023-07-31T09:11:57;19.20;99.90
20208;DHT22;10263;48.716;8.760;2023-07-31T09:14:25;19.20;99.90
20208;DHT22;10263;48.716;8.760;2023-07-31T09:16:53;19.10;99.90
20208;DHT22;10263;48.716;8.760;2023-07-31T09:19:27;19.00;99.90
20208;DHT22;10263;48.716;8.760;2023-07-31T09:21:54;19.00;99.90
20208;DHT22;10263;48.716;8.760;2023-07-31T09:24:28;19.10;99.90
20208;DHT22;10263;48.716;8.760;2023-07-31T09:26:56;19.30;99.90
20208;DHT22;10263;48.716;8.760;2023-07-31T09:29:24;19.40;99.90
20208;DHT22;10263;48.716;8.760;2023-07-31T09:31:52;19.40;99.90
20208;DHT22;10263;48.716;8.760;2023-07-31T09:34:20;19.40;99.90
20208;DHT22;10263;48.716;8.760;2023-07-31T09:36:59;19.40;99.90
20208;DHT22;10263;48.716;8.760;2023-07-31T09:39:27;19.40;99.90
20208;DHT22;10263;48.716;8.760;2023-07-31T09:41:56;19.40;99.90
20208;DHT22;10263;48.716;8.760;2023-07-31T09:44:37;19.70;99.90
20208;DHT22;10263;48.716;8.760;2023-07-31T09:47:04;20.20;99.90
20208;DHT22;10263;48.716;8.760;2023-07-31T09:49:31;21.20;99.90
20208;DHT22;10263;48.716;8.760;2023-07-31T09:52:00;22.20;99.90
20208;DHT22;10263;48.716;8.760;2023-07-31T09:54:27;22.70;99.90
20208;DHT22;10263;48.716;8.760;2023-07-31T09:56:54;22.90;99.90
20208;DHT22;10263;48.716;8.760;2023-07-31T09:59:23;23.40;99.90
20208;DHT22;10263;48.716;8.760;2023-07-31T10:01:51;24.00;99.90
20208;DHT22;10263;48.716;8.760;2023-07-31T10:04:20;24.50;99.90
20208;DHT22;10263;48.716;8.760;2023-07-31T10:06:53;24.30;99.90
20208;DHT22;10263;48.716;8.760;2023-07-31T10:09:24;23.90;99.90
20208;DHT22;10263;48.716;8.760;2023-07-31T10:11:56;23.50;99.90
20208;DHT22;10263;48.716;8.760;2023-07-31T10:14:26;23.10;99.90
20208;DHT22;10263;48.716;8.760;2023-07-31T10:16:55;23.00;99.90
20208;DHT22;10263;48.716;8.760;2023-07-31T10:19:22;22.90;99.90
20208;DHT22;10263;48.716;8.760;2023-07-31T10:21:49;22.60;99.90
20208;DHT22;10263;48.716;8.760;2023-07-31T10:24:16;23.10;99.90
20208;DHT22;10263;48.716;8.760;2023-07-31T10:26:45;23.70;99.90
20208;DHT22;10263;48.716;8.760;2023-07-31T10:29:15;24.30;99.90
20208;DHT22;10263;48.716;8.760;2023-07-31T10:31:43;24.30;98.80
20208;DHT22;10263;48.716;8.760;2023-07-31T10:34:10;24.20;98.60
20208;DHT22;10263;48.716;8.760;2023-07-31T10:36:37;24.40;99.90
20208;DHT22;10263;48.716;8.760;2023-07-31T10:39:04;25.20;98.20
20208;DHT22;10263;48.716;8.760;2023-07-31T10:41:53;25.80;97.40
20208;DHT22;10263;48.716;8.760;2023-07-31T10:44:19;25.80;96.80
20208;DHT22;10263;48.716;8.760;2023-07-31T10:46:46;25.90;95.80
20208;DHT22;10263;48.716;8.760;2023-07-31T10:49:20;25.50;94.50
20208;DHT22;10263;48.716;8.760;2023-07-31T10:51:48;24.80;96.00
20208;DHT22;10263;48.716;8.760;2023-07-31T10:54:16;24.40;97.30
20208;DHT22;10263;48.716;8.760;2023-07-31T10:56:45;24.20;97.20
20208;DHT22;10263;48.716;8.760;2023-07-31T10:59:14;24.00;96.80
20208;DHT22;10263;48.716;8.760;2023-07-31T11:01:53;23.80;97.00
20208;DHT22;10263;48.716;8.760;2023-07-31T11:04:23;23.60;97.10
20208;DHT22;10263;48.716;8.760;2023-07-31T11:06:57;23.50;97.10
20208;DHT22;10263;48.716;8.760;2023-07-31T11:09:27;23.10;97.60
20208;DHT22;10263;48.716;8.760;2023-07-31T11:11:55;23.10;98.20
20208;DHT22;10263;48.716;8.760;2023-07-31T11:14:24;23.10;99.00
20208;DHT22;10263;48.716;8.760;2023-07-31T11:16:51;23.00;99.70
20208;DHT22;10263;48.716;8.760;2023-07-31T11:19:22;22.90;97.90
20208;DHT22;10263;48.716;8.760;2023-07-31T11:21:49;22.60;98.10
20208;DHT22;10263;48.716;8.760;2023-07-31T11:24:17;22.40;99.60
20208;DHT22;10263;48.716;8.760;2023-07-31T11:26:49;22.20;99.50
20208;DHT22;10263;48.716;8.760;2023-07-31T11:29:16;22.20;99.90
20208;DHT22;10263;48.716;8.760;2023-07-31T11:31:44;22.20;99.90
20208;DHT22;10263;48.716;8.760;2023-07-31T11:34:11;22.20;99.90
20208;DHT22;10263;48.716;8.760;2023-07-31T11:36:37;22.20;99.90
20208;DHT22;10263;48.716;8.760;2023-07-31T11:39:05;22.10;99.90
20208;DHT22;10263;48.716;8.760;2023-07-31T11:41:32;22.10;99.90
20208;DHT22;10263;48.716;8.760;2023-07-31T11:43:59;22.00;99.90
20208;DHT22;10263;48.716;8.760;2023-07-31T11:46:27;22.00;99.90
20208;DHT22;10263;48.716;8.760;2023-07-31T11:48:59;22.00;99.90
20208;DHT22;10263;48.716;8.760;2023-07-31T11:51:27;22.20;99.90
20208;DHT22;10263;48.716;8.760;2023-07-31T11:53:57;22.00;99.30
20208;DHT22;10263;48.716;8.760;2023-07-31T11:56:25;22.10;99.90
20208;DHT22;10263;48.716;8.760;2023-07-31T11:58:55;22.10;99.90
20208;DHT22;10263;48.716;8.760;2023-07-31T12:01:24;22.10;99.90
20208;DHT22;10263;48.716;8.760;2023-07-31T12:03:52;22.20;99.90
20208;DHT22;10263;48.716;8.760;2023-07-31T12:06:20;22.20;99.90
20208;DHT22;10263;48.716;8.760;2023-07-31T12:08:47;21.80;99.90
20208;DHT22;10263;48.716;8.760;2023-07-31T12:11:14;21.70;99.90
20208;DHT22;10263;48.716;8.760;2023-07-31T12:13:43;21.70;99.90
20208;DHT22;10263;48.716;8.760;2023-07-31T12:16:10;21.70;99.90
20208;DHT22;10263;48.716;8.760;2023-07-31T12:18:37;21.60;99.90
20208;DHT22;10263;48.716;8.760;2023-07-31T12:21:05;21.50;99.90
20208;DHT22;10263;48.716;8.760;2023-07-31T12:23:36;21.50;99.90
20208;DHT22;10263;48.716;8.760;2023-07-31T12:26:04;21.50;99.90
20208;DHT22;10263;48.716;8.760;2023-07-31T12:28:35;21.50;99.90
20208;DHT22;10263;48.716;8.760;2023-07-31T12:31:02;21.80;99.90
20208;DHT22;10263;48.716;8.760;2023-07-31T12:33:34;22.20;99.90
20208;DHT22;10263;48.716;8.760;2023-07-31T12:36:02;22.30;99.90
20208;DHT22;10263;48.716;8.760;2023-07-31T12:38:29;22.50;99.90
20208;DHT22;10263;48.716;8.760;2023-07-31T12:40:57;22.60;99.90
20208;DHT22;10263;48.716;8.760;2023-07-31T12:43:24;22.60;99.90
20208;DHT22;10263;48.716;8.760;2023-07-31T12:45:51;22.30;99.90
20208;DHT22;10263;48.716;8.760;2023-07-31T12:48:18;22.10;99.90
20208;DHT22;10263;48.716;8.760;2023-07-31T12:50:45;21.90;99.90
20208;DHT22;10263;48.716;8.760;2023-07-31T12:53:11;22.60;99.90
20208;DHT22;10263;48.716;8.760;2023-07-31T12:55:38;22.70;99.90
20208;DHT22;10263;48.716;8.760;2023-07-31T12:58:06;23.00;99.90
20208;DHT22;10263;48.716;8.760;2023-07-31T13:00:33;23.00;99.90
20208;DHT22;10263;48.716;8.760;2023-07-31T13:03:00;23.40;99.80
20208;DHT22;10263;48.716;8.760;2023-07-31T13:05:27;23.40;99.90
20208;DHT22;10263;48.716;8.760;2023-07-31T13:07:54;23.70;99.90
20208;DHT22;10263;48.716;8.760;2023-07-31T13:10:22;24.10;99.50
20208;DHT22;10263;48.716;8.760;2023-07-31T13:12:49;24.40;99.90
20208;DHT22;10263;48.716;8.760;2023-07-31T13:15:17;24.80;99.90
20208;DHT22;10263;48.716;8.760;2023-07-31T13:17:45;25.10;99.60
20208;DHT22;10263;48.716;8.760;2023-07-31T13:20:12;25.10;97.90
20208;DHT22;10263;48.716;8.760;2023-07-31T13:22:39;24.90;97.20
20208;DHT22;10263;48.716;8.760;2023-07-31T13:25:06;24.60;98.30
20208;DHT22;10263;48.716;8.760;2023-07-31T13:27:34;24.10;98.00
20208;DHT22;10263;48.716;8.760;2023-07-31T13:30:01;23.80;98.20
20208;DHT22;10263;48.716;8.760;2023-07-31T13:32:30;23.50;99.00
20208;DHT22;10263;48.716;8.760;2023-07-31T13:34:57;23.30;98.70
20208;DHT22;10263;48.716;8.760;2023-07-31T13:37:24;23.00;98.30
20208;DHT22;10263;48.716;8.760;2023-07-31T13:39:50;22.80;99.80
20208;DHT22;10263;48.716;8.760;2023-07-31T13:42:17;22.70;99.40
20208;DHT22;10263;48.716;8.760;2023-07-31T13:44:44;22.70;99.80
20208;DHT22;10263;48.716;8.760;2023-07-31T13:47:11;22.60;99.90
20208;DHT22;10263;48.716;8.760;2023-07-31T13:49:39;22.60;99.90
20208;DHT22;10263;48.716;8.760;2023-07-31T13:52:06;22.60;99.60
20208;DHT22;10263;48.716;8.760;2023-07-31T13:54:33;22.70;99.90
20208;DHT22;10263;48.716;8.760;2023-07-31T13:57:00;22.70;99.90
20208;DHT22;10263;48.716;8.760;2023-07-31T13:59:27;22.70;99.90
20208;DHT22;10263;48.716;8.760;2023-07-31T14:01:54;22.70;99.60
20208;DHT22;10263;48.716;8.760;2023-07-31T14:04:20;22.80;99.00
20208;DHT22;10263;48.716;8.760;2023-07-31T14:06:48;22.80;99.90
20208;DHT22;10263;48.716;8.760;2023-07-31T14:09:16;22.80;98.50
20208;DHT22;10263;48.716;8.760;2023-07-31T14:11:43;22.80;98.50
20208;DHT22;10263;48.716;8.760;2023-07-31T14:14:10;22.80;98.60
20208;DHT22;10263;48.716;8.760;2023-07-31T14:16:37;22.70;99.10
20208;DHT22;10263;48.716;8.760;2023-07-31T14:19:04;22.70;98.30
20208;DHT22;10263;48.716;8.760;2023-07-31T14:21:33;22.70;98.60
20208;DHT22;10263;48.716;8.760;2023-07-31T14:24:01;22.70;97.80
20208;DHT22;10263;48.716;8.760;2023-07-31T14:26:27;22.70;98.50
20208;DHT22;10263;48.716;8.760;2023-07-31T14:28:54;22.70;98.70
20208;DHT22;10263;48.716;8.760;2023-07-31T14:31:21;22.80;99.30
20208;DHT22;10263;48.716;8.760;2023-07-31T14:33:48;22.90;98.70
20208;DHT22;10263;48.716;8.760;2023-07-31T14:36:14;23.00;99.30
20208;DHT22;10263;48.716;8.760;2023-07-31T14:38:41;23.00;98.20
20208;DHT22;10263;48.716;8.760;2023-07-31T14:41:09;22.90;98.90
20208;DHT22;10263;48.716;8.760;2023-07-31T14:43:36;22.90;98.20
20208;DHT22;10263;48.716;8.760;2023-07-31T14:46:03;22.90;98.10
20208;DHT22;10263;48.716;8.760;2023-07-31T14:48:29;22.90;98.20
20208;DHT22;10263;48.716;8.760;2023-07-31T14:50:56;22.70;98.00
20208;DHT22;10263;48.716;8.760;2023-07-31T14:53:23;22.60;98.70
20208;DHT22;10263;48.716;8.760;2023-07-31T14:55:50;22.60;99.30
20208;DHT22;10263;48.716;8.760;2023-07-31T14:58:18;22.50;99.20
20208;DHT22;10263;48.716;8.760;2023-07-31T15:00:45;22.40;99.30
20208;DHT22;10263;48.716;8.760;2023-07-31T15:03:11;22.50;99.20
20208;DHT22;10263;48.716;8.760;2023-07-31T15:05:38;22.50;99.40
20208;DHT22;10263;48.716;8.760;2023-07-31T15:08:05;22.50;99.90
20208;DHT22;10263;48.716;8.760;2023-07-31T15:10:32;22.60;99.90
20208;DHT22;10263;48.716;8.760;2023-07-31T15:12:59;22.60;99.80
20208;DHT22;10263;48.716;8.760;2023-07-31T15:15:28;22.60;99.90
20208;DHT22;10263;48.716;8.760;2023-07-31T15:17:54;22.60;99.90
20208;DHT22;10263;48.716;8.760;2023-07-31T15:20:22;22.40;99.80
20208;DHT22;10263;48.716;8.760;2023-07-31T15:22:49;22.40;99.90
20208;DHT22;10263;48.716;8.760;2023-07-31T15:25:16;22.30;99.90
20208;DHT22;10263;48.716;8.760;2023-07-31T15:27:43;22.20;99.90
20208;DHT22;10263;48.716;8.760;2023-07-31T15:30:10;22.20;99.90
20208;DHT22;10263;48.716;8.760;2023-07-31T15:32:38;22.10;99.90
20208;DHT22;10263;48.716;8.760;2023-07-31T15:35:06;22.00;99.90
20208;DHT22;10263;48.716;8.760;2023-07-31T15:37:33;22.00;99.90
20208;DHT22;10263;48.716;8.760;2023-07-31T15:40:00;22.00;99.90
20208;DHT22;10263;48.716;8.760;2023-07-31T15:42:26;22.00;99.90
20208;DHT22;10263;48.716;8.760;2023-07-31T15:44:53;21.90;99.90